createdAt,value
2023-02-11T00:01:22.078Z,45.90
2023-02-11T00:04:24.244Z,48.83
2023-02-11T00:07:26.304Z,51.08
2023-02-11T00:10:27.994Z,43.28
2023-02-11T00:13:30.445Z,46.83
2023-02-11T00:16:32.511Z,46.53
2023-02-11T00:19:35.114Z,44.03
2023-02-11T00:22:36.686Z,47.17
2023-02-11T00:25:42.801Z,44.47
2023-02-11T00:28:45.777Z,47.22
2023-02-11T00:31:48.526Z,45.10
2023-02-11T00:34:53.392Z,50.40
2023-02-11T00:37:56.594Z,45.70
2023-02-11T00:40:58.712Z,45.22
2023-02-11T00:44:01.773Z,41.90
2023-02-11T00:47:03.474Z,40.53
2023-02-11T00:50:07.604Z,40.33
2023-02-11T00:53:09.191Z,41.10
2023-02-11T00:56:11.448Z,46.28
2023-02-11T00:59:12.985Z,41.47
2023-02-11T01:02:15.048Z,44.38
2023-02-11T01:05:18.964Z,40.87
2023-02-11T01:08:23.630Z,44.78
2023-02-11T01:11:25.512Z,46.85
2023-02-11T01:14:27.614Z,44.13
2023-02-11T01:17:30.069Z,44.78
2023-02-11T01:20:32.226Z,42.95
2023-02-11T01:23:34.289Z,49.10
2023-02-11T01:26:35.955Z,42.17
2023-02-11T01:29:37.518Z,46.70
2023-02-11T01:32:39.283Z,44.42
2023-02-11T01:35:41.791Z,46.10
2023-02-11T01:38:45.535Z,38.13
2023-02-11T01:41:47.666Z,43.80
2023-02-11T01:44:54.381Z,44.33
2023-02-11T01:47:55.947Z,46.88
2023-02-11T01:51:07.218Z,42.03
2023-02-11T01:54:33.859Z,39.33
2023-02-11T01:57:39.645Z,45.00
2023-02-11T02:00:43.026Z,41.35
2023-02-11T02:03:49.555Z,48.22
2023-02-11T02:06:58.779Z,47.67
2023-02-11T02:10:06.573Z,44.47
2023-02-11T02:13:08.831Z,36.50
2023-02-11T02:16:16.507Z,36.53
2023-02-11T02:19:21.621Z,40.75
2023-02-11T02:22:36.412Z,39.80
2023-02-11T02:25:40.877Z,39.45
2023-02-11T02:29:12.654Z,37.67
2023-02-11T02:32:32.415Z,34.70
2023-02-11T02:36:05.339Z,37.30
2023-02-11T02:39:14.774Z,33.73
2023-02-11T02:42:19.024Z,35.22
2023-02-11T02:45:21.130Z,35.28
2023-02-11T02:48:26.976Z,35.40
2023-02-11T02:51:51.853Z,39.85
2023-02-11T02:55:07.002Z,33.92
2023-02-11T02:58:39.208Z,34.13
2023-02-11T03:01:41.635Z,36.53
2023-02-11T03:04:55.577Z,36.13
2023-02-11T03:08:08.319Z,43.80
2023-02-11T03:11:11.806Z,36.03
2023-02-11T03:14:17.246Z,33.95
2023-02-11T03:17:20.493Z,30.55
2023-02-11T03:20:23.522Z,31.13
2023-02-11T03:23:52.655Z,32.15
2023-02-11T03:26:57.645Z,31.83
2023-02-11T03:30:31.041Z,30.35
2023-02-11T03:33:57.614Z,33.00
2023-02-11T03:37:09.095Z,31.27
2023-02-11T03:40:16.656Z,28.25
2023-02-11T03:43:22.736Z,28.93
2023-02-11T03:46:31.817Z,28.02
2023-02-11T03:49:36.081Z,27.13
2023-02-11T03:52:39.191Z,32.13
2023-02-11T03:55:41.578Z,30.00
2023-02-11T03:58:46.025Z,29.63
2023-02-11T04:01:48.064Z,28.40
2023-02-11T04:04:50.126Z,33.63
2023-02-11T04:07:51.714Z,28.70
2023-02-11T04:10:53.764Z,27.65
2023-02-11T04:13:55.356Z,27.97
2023-02-11T04:16:57.441Z,22.65
2023-02-11T04:19:59.460Z,31.98
2023-02-11T04:23:01.479Z,27.00
2023-02-11T04:26:03.622Z,27.75
2023-02-11T04:29:05.634Z,27.95
2023-02-11T04:32:09.430Z,29.85
2023-02-11T04:35:11.057Z,27.60
2023-02-11T04:38:13.034Z,25.08
2023-02-11T04:41:15.038Z,25.27
2023-02-11T04:44:17.096Z,29.03
2023-02-11T04:47:20.119Z,29.80
2023-02-11T04:50:22.215Z,26.75
2023-02-11T04:53:24.215Z,29.87
2023-02-11T04:56:26.220Z,28.35
2023-02-11T04:59:28.257Z,22.48
2023-02-11T05:02:30.254Z,25.05
2023-02-11T05:05:32.246Z,28.73
2023-02-11T05:08:33.825Z,25.23
2023-02-11T05:11:36.797Z,26.45
2023-02-11T05:14:39.298Z,27.33
2023-02-11T05:17:41.273Z,26.85
2023-02-11T05:20:43.972Z,29.48
2023-02-11T05:23:46.990Z,29.97
2023-02-11T05:26:48.645Z,26.23
2023-02-11T05:29:52.000Z,25.73
2023-02-11T05:32:54.810Z,27.98
2023-02-11T05:36:05.759Z,24.42
2023-02-11T05:39:07.358Z,26.92
2023-02-11T05:42:09.018Z,26.63
2023-02-11T05:45:10.636Z,27.87
2023-02-11T05:48:12.573Z,25.20
2023-02-11T05:51:14.764Z,28.17
2023-02-11T05:54:16.769Z,27.37
2023-02-11T05:57:18.803Z,27.70
2023-02-11T06:00:20.886Z,29.48
2023-02-11T06:03:23.337Z,26.85
2023-02-11T06:06:26.062Z,26.95
2023-02-11T06:09:28.438Z,28.63
2023-02-11T06:12:30.563Z,25.20
2023-02-11T06:15:32.769Z,27.23
2023-02-11T06:18:34.881Z,26.50
2023-02-11T06:21:43.964Z,24.95
2023-02-11T06:25:00.973Z,25.37
2023-02-11T06:28:04.509Z,31.05
2023-02-11T06:31:07.173Z,30.17
2023-02-11T06:34:10.429Z,29.63
2023-02-11T06:37:12.729Z,32.15
2023-02-11T06:40:14.590Z,29.38
2023-02-11T06:43:17.357Z,32.85
2023-02-11T06:46:20.979Z,28.30
2023-02-11T06:49:22.884Z,33.10
2023-02-11T06:52:27.308Z,27.77
2023-02-11T06:55:28.935Z,29.73
2023-02-11T06:58:30.698Z,26.15
2023-02-11T07:01:34.880Z,28.55
2023-02-11T07:04:37.358Z,30.80
2023-02-11T07:07:38.945Z,30.77
2023-02-11T07:10:40.668Z,23.92
2023-02-11T07:13:43.084Z,26.98
2023-02-11T07:16:45.351Z,27.97
2023-02-11T07:19:47.337Z,25.52
2023-02-11T07:22:48.963Z,29.83
2023-02-11T07:25:50.860Z,26.43
2023-02-11T07:28:53.458Z,28.30
2023-02-11T07:31:55.112Z,28.83
2023-02-11T07:34:57.724Z,35.33
2023-02-11T07:37:59.399Z,41.40
2023-02-11T07:41:07.244Z,30.33
2023-02-11T07:44:09.466Z,27.02
2023-02-11T07:47:12.042Z,33.63
2023-02-11T07:50:14.177Z,31.65
2023-02-11T07:53:16.111Z,33.05
2023-02-11T07:56:19.640Z,24.77
2023-02-11T07:59:21.707Z,27.42
2023-02-11T08:02:23.827Z,23.63
2023-02-11T08:05:25.527Z,24.45
2023-02-11T08:08:27.967Z,22.88
2023-02-11T08:11:29.623Z,21.30
2023-02-11T08:14:32.845Z,24.52
2023-02-11T08:17:36.093Z,23.33
2023-02-11T08:20:39.335Z,22.73
2023-02-11T08:23:42.816Z,24.58
2023-02-11T08:26:44.496Z,22.60
2023-02-11T08:29:46.084Z,24.45
2023-02-11T08:32:48.134Z,23.42
2023-02-11T08:35:49.715Z,25.95
2023-02-11T08:38:51.441Z,23.20
2023-02-11T08:41:56.812Z,25.13
2023-02-11T08:44:58.432Z,23.08
2023-02-11T08:48:00.632Z,21.07
2023-02-11T08:51:11.914Z,26.15
2023-02-11T08:54:14.862Z,22.38
2023-02-11T08:57:17.695Z,26.33
2023-02-11T09:00:20.781Z,24.00
2023-02-11T09:03:24.625Z,24.70
2023-02-11T09:06:28.031Z,26.08
2023-02-11T09:09:30.033Z,21.63
2023-02-11T09:12:32.590Z,26.55
2023-02-11T09:15:34.202Z,26.83
2023-02-11T09:18:36.345Z,23.17
2023-02-11T09:21:38.103Z,26.73
2023-02-11T09:24:39.935Z,26.88
2023-02-11T09:27:41.655Z,29.00
2023-02-11T09:30:43.316Z,29.88
2023-02-11T09:33:50.552Z,30.45
2023-02-11T09:36:52.577Z,24.08
2023-02-11T09:39:54.083Z,29.00
2023-02-11T09:43:04.767Z,29.83
2023-02-11T09:46:07.028Z,32.15
2023-02-11T09:49:19.787Z,26.87
2023-02-11T09:52:30.161Z,30.63
2023-02-11T09:55:56.580Z,27.52
2023-02-11T09:58:58.362Z,28.60
2023-02-11T10:02:10.070Z,30.35
2023-02-11T10:05:17.656Z,24.65
2023-02-11T10:08:42.170Z,24.98
2023-02-11T10:12:02.997Z,25.80
2023-02-11T10:15:18.008Z,24.02
2023-02-11T10:18:41.449Z,24.25
2023-02-11T10:21:58.939Z,23.63
2023-02-11T10:25:06.060Z,24.13
2023-02-11T10:28:19.009Z,25.13
2023-02-11T10:31:25.577Z,25.80
2023-02-11T10:34:27.806Z,29.70
2023-02-11T10:37:31.966Z,26.17
2023-02-11T10:40:33.810Z,25.20
2023-02-11T10:43:35.788Z,27.30
2023-02-11T10:46:40.641Z,26.15
2023-02-11T10:49:44.252Z,25.25
2023-02-11T10:52:46.321Z,24.97
2023-02-11T10:55:53.994Z,24.48
2023-02-11T10:59:21.686Z,25.55
2023-02-11T11:02:36.153Z,27.97
2023-02-11T11:05:48.522Z,24.98
2023-02-11T11:08:51.849Z,26.13
2023-02-11T11:11:53.937Z,26.52
2023-02-11T11:15:02.332Z,24.80
2023-02-11T11:18:22.137Z,29.60
2023-02-11T11:21:28.728Z,29.67
2023-02-11T11:24:44.369Z,26.63
2023-02-11T11:27:50.631Z,25.48
2023-02-11T11:30:54.904Z,24.63
2023-02-11T11:33:59.989Z,26.77
2023-02-11T11:37:12.365Z,25.17
2023-02-11T11:40:17.249Z,25.20
2023-02-11T11:43:23.094Z,21.02
2023-02-11T11:46:47.313Z,23.83
2023-02-11T11:50:01.178Z,22.45
2023-02-11T11:53:14.334Z,19.88
2023-02-11T11:56:25.071Z,22.07
2023-02-11T11:59:27.462Z,23.92
2023-02-11T12:03:02.759Z,21.10
2023-02-11T12:06:25.607Z,21.53
2023-02-11T12:09:45.860Z,21.30
2023-02-11T12:13:10.085Z,20.30
2023-02-11T12:16:20.683Z,19.25
2023-02-11T12:19:43.518Z,19.95
2023-02-11T12:23:03.736Z,19.85
2023-02-11T12:26:17.758Z,20.88
2023-02-11T12:29:37.323Z,23.40
2023-02-11T12:32:42.567Z,20.20
2023-02-11T12:35:56.072Z,21.85
2023-02-11T12:39:45.376Z,20.03
2023-02-11T12:43:17.194Z,22.25
2023-02-11T12:46:31.522Z,22.95
2023-02-11T12:50:02.185Z,22.67
2023-02-11T12:53:21.988Z,20.95
2023-02-11T12:56:38.782Z,20.08
2023-02-11T12:59:55.479Z,20.30
2023-02-11T13:03:20.615Z,20.93
2023-02-11T13:06:35.112Z,24.55
2023-02-11T13:09:45.096Z,22.60
2023-02-11T13:13:08.855Z,22.93
2023-02-11T13:16:40.718Z,23.63
2023-02-11T13:19:52.654Z,18.60
2023-02-11T13:23:16.516Z,20.65
2023-02-11T13:26:33.592Z,23.00
2023-02-11T13:29:49.095Z,21.15
2023-02-11T13:32:56.581Z,19.25
2023-02-11T13:35:58.058Z,19.07
2023-02-11T13:39:01.247Z,17.95
2023-02-11T13:42:04.150Z,19.13
2023-02-11T13:45:37.544Z,19.27
2023-02-11T13:48:46.292Z,18.50
2023-02-11T13:51:48.438Z,18.65
2023-02-11T13:54:52.736Z,18.08
2023-02-11T13:58:06.381Z,18.02
2023-02-11T14:01:08.078Z,17.55
2023-02-11T14:04:46.868Z,18.65
2023-02-11T14:08:30.829Z,19.50
2023-02-11T14:11:41.723Z,19.83
2023-02-11T14:15:02.366Z,17.33
2023-02-11T14:18:36.636Z,18.50
2023-02-11T14:21:41.951Z,17.70
2023-02-11T14:24:49.008Z,19.27
2023-02-11T14:28:06.775Z,18.48
2023-02-11T14:31:12.497Z,19.58
2023-02-11T14:34:42.193Z,18.00
2023-02-11T14:37:59.295Z,16.73
2023-02-11T14:41:07.026Z,20.53
2023-02-11T14:44:17.892Z,16.60
2023-02-11T14:47:23.905Z,18.20
2023-02-11T14:50:48.575Z,19.20
2023-02-11T14:53:52.949Z,18.52
2023-02-11T14:57:15.619Z,17.77
2023-02-11T15:00:20.928Z,20.08
2023-02-11T15:03:37.151Z,20.48
2023-02-11T15:06:45.320Z,21.45
2023-02-11T15:09:53.623Z,25.15
2023-02-11T15:12:55.796Z,23.77
2023-02-11T15:16:06.596Z,19.30
2023-02-11T15:19:26.746Z,23.33
2023-02-11T15:22:33.061Z,17.57
2023-02-11T15:25:42.296Z,20.05
2023-02-11T15:28:51.922Z,19.88
2023-02-11T15:32:17.985Z,20.83
2023-02-11T15:35:19.731Z,19.33
2023-02-11T15:38:21.286Z,19.83
2023-02-11T15:41:38.224Z,20.27
2023-02-11T15:44:41.364Z,20.77
2023-02-11T15:47:49.636Z,21.80
2023-02-11T15:50:54.766Z,18.33
2023-02-11T15:53:59.315Z,19.87
2023-02-11T15:57:10.112Z,18.73
2023-02-11T16:00:21.504Z,20.55
2023-02-11T16:03:25.461Z,18.92
2023-02-11T16:06:38.992Z,20.63
2023-02-11T16:09:40.584Z,23.35
2023-02-11T16:13:01.664Z,21.05
2023-02-11T16:16:05.418Z,19.80
2023-02-11T17:39:32.802Z,28.13
2023-02-11T17:42:57.645Z,25.48
2023-02-11T17:47:50.780Z,25.40
2023-02-11T17:50:52.766Z,24.70
2023-02-11T17:59:15.669Z,24.65
2023-02-11T18:02:20.898Z,25.02
2023-02-11T18:05:24.300Z,22.80
2023-02-11T18:08:26.168Z,22.52
2023-02-11T18:11:30.562Z,28.07
2023-02-11T18:14:32.524Z,25.50
2023-02-11T18:17:34.289Z,30.30
2023-02-11T18:20:36.074Z,26.30
2023-02-11T18:23:37.960Z,28.30
2023-02-11T18:26:39.944Z,27.95
2023-02-11T18:29:44.293Z,27.00
2023-02-11T18:32:46.307Z,26.17
2023-02-11T18:35:49.357Z,28.80
2023-02-11T18:39:00.863Z,33.75
2023-02-11T18:42:07.081Z,33.37
2023-02-11T18:45:11.773Z,34.45
2023-02-11T18:48:14.669Z,35.22
2023-02-11T18:51:21.085Z,39.10
2023-02-11T18:54:37.480Z,49.00
2023-02-11T18:57:43.212Z,45.85
2023-02-11T19:00:49.523Z,37.70
2023-02-11T19:03:54.476Z,35.72
2023-02-11T19:07:06.886Z,32.65
2023-02-11T19:10:17.063Z,34.95
2023-02-11T19:13:43.528Z,33.47
2023-02-11T19:16:46.339Z,34.92
2023-02-11T19:19:50.619Z,29.90
2023-02-11T19:22:52.587Z,35.30
2023-02-11T19:25:54.559Z,35.10
2023-02-11T19:28:59.619Z,34.88
2023-02-11T19:32:07.372Z,33.05
2023-02-11T19:35:09.459Z,33.42
2023-02-11T19:38:16.340Z,38.40
2023-02-11T19:41:25.377Z,40.13
2023-02-11T19:44:40.349Z,56.87
2023-02-11T19:48:04.637Z,56.13
2023-02-11T19:56:04.308Z,47.17
2023-02-11T19:59:09.868Z,44.03
2023-02-11T20:02:12.951Z,42.88
2023-02-11T20:05:14.810Z,48.80
2023-02-11T20:08:17.193Z,42.65
2023-02-11T20:11:22.624Z,47.22
2023-02-11T20:14:26.842Z,43.30
2023-02-11T20:17:29.774Z,39.50
2023-02-11T20:20:31.565Z,39.45
2023-02-11T20:23:33.420Z,33.65
2023-02-11T20:26:35.399Z,31.67
2023-02-11T20:29:42.393Z,32.50
2023-02-11T20:32:44.389Z,34.45
2023-02-11T20:36:01.071Z,31.55
2023-02-11T20:45:09.220Z,33.92
2023-02-11T20:48:59.396Z,35.58
2023-02-11T20:52:01.185Z,31.90
2023-02-11T20:55:03.149Z,33.58
2023-02-11T20:58:07.830Z,33.42
2023-02-11T21:01:16.874Z,37.23
2023-02-11T21:04:27.587Z,33.25
2023-02-11T21:07:29.741Z,36.80
2023-02-11T21:10:39.701Z,35.25
2023-02-11T21:13:48.927Z,32.40
2023-02-11T21:16:51.434Z,37.03
2023-02-11T21:20:11.205Z,40.97
2023-02-11T21:23:38.909Z,37.83
2023-02-11T21:27:11.095Z,37.45
2023-02-11T21:30:19.171Z,41.97
2023-02-11T21:33:34.666Z,42.60
2023-02-11T21:36:38.796Z,37.40
2023-02-11T21:39:42.764Z,42.00
2023-02-11T21:42:46.594Z,41.72
2023-02-11T21:45:51.202Z,41.25
2023-02-11T21:48:56.071Z,36.67
2023-02-11T21:52:08.033Z,43.10
2023-02-11T21:55:12.174Z,42.30
2023-02-11T21:58:16.473Z,39.08
2023-02-11T22:01:25.115Z,44.67
2023-02-11T22:04:27.582Z,46.27
2023-02-11T22:07:33.713Z,40.03
2023-02-11T22:10:39.123Z,45.33
2023-02-11T22:13:44.537Z,44.00
2023-02-11T22:16:47.474Z,41.97
2023-02-11T22:19:57.199Z,42.33
2023-02-11T22:22:59.039Z,44.38
2023-02-11T22:26:26.616Z,42.47
2023-02-11T22:29:32.106Z,40.65
2023-02-11T22:32:42.660Z,43.72
2023-02-11T22:35:45.496Z,41.33
2023-02-11T22:38:50.400Z,42.45
2023-02-11T22:41:53.870Z,43.40
2023-02-11T22:44:55.858Z,43.13
2023-02-11T22:47:57.666Z,45.38
2023-02-11T22:51:19.739Z,39.63
2023-02-11T22:54:26.629Z,43.55
2023-02-11T22:57:39.745Z,39.60
2023-02-11T23:00:42.910Z,43.13
2023-02-11T23:03:55.210Z,41.75
2023-02-11T23:06:57.183Z,42.83
2023-02-11T23:10:04.914Z,43.33
2023-02-11T23:13:15.813Z,41.45
2023-02-11T23:16:23.516Z,42.70
2023-02-11T23:19:29.013Z,40.45
2023-02-11T23:22:37.014Z,44.50
2023-02-11T23:25:45.109Z,41.60
2023-02-11T23:28:47.035Z,45.30
2023-02-11T23:31:52.385Z,42.80
2023-02-11T23:35:00.101Z,44.30
2023-02-11T23:38:06.963Z,38.30
2023-02-11T23:41:09.275Z,39.65
2023-02-11T23:44:11.550Z,40.83
2023-02-11T23:47:13.460Z,42.20
2023-02-11T23:50:18.681Z,43.42
2023-02-11T23:53:20.642Z,39.25
2023-02-11T23:56:25.607Z,42.85
2023-02-11T23:59:27.457Z,41.90
